Time;durP1;ratioP1;P1;durP2;ratioP2;P2;SDS_P1;SDS_P2;PMS_P1;PMS_P2;Temp;Humidity;BMP_temperature;BMP_pressure;BME280_temperature;BME280_humidity;BME280_pressure;Samples;Min_cycle;Max_cycle;Signal;HPM_P1;HPM_P2
2021/11/23 00:01:48;;;;;;;;;;;23.70;65.40;;;;;;5092319;28;19914;-65
2021/11/23 00:04:13;;;;;;;;;;;23.70;65.30;;;;;;5091662;28;20361;-64
2021/11/23 00:06:38;;;;;;;;;;;23.70;65.30;;;;;;5092308;28;19912;-64
2021/11/23 00:09:04;;;;;;;;;;;23.60;65.20;;;;;;5092154;28;19915;-65
2021/11/23 00:11:30;;;;;;;;;;;23.60;65.20;;;;;;5092053;28;19968;-65
2021/11/23 00:13:55;;;;;;;;;;;23.60;65.20;;;;;;5092154;28;20288;-65
2021/11/23 00:16:21;;;;;;;;;;;23.60;65.10;;;;;;5092277;28;19908;-64
2021/11/23 00:18:47;;;;;;;;;;;23.60;65.10;;;;;;5091480;28;20273;-64
2021/11/23 00:21:13;;;;;;;;;;;23.60;65.10;;;;;;5092100;28;19915;-64
2021/11/23 00:23:38;;;;;;;;;;;23.60;65.10;;;;;;5092009;28;20038;-64
2021/11/23 00:26:05;;;;;;;;;;;23.60;65.00;;;;;;5091915;28;19908;-65
2021/11/23 00:28:30;;;;;;;;;;;23.60;65.00;;;;;;5091929;28;20368;-64
2021/11/23 00:30:56;;;;;;;;;;;23.50;64.90;;;;;;5091899;28;19908;-64
2021/11/23 00:33:21;;;;;;;;;;;23.50;64.90;;;;;;5091201;28;19920;-64
2021/11/23 00:35:47;;;;;;;;;;;23.50;64.90;;;;;;5091887;28;19934;-63
2021/11/23 00:38:12;;;;;;;;;;;23.50;64.90;;;;;;5091912;28;19908;-66
2021/11/23 00:40:38;;;;;;;;;;;23.50;64.80;;;;;;5091787;28;19940;-65
2021/11/23 00:43:04;;;;;;;;;;;23.50;64.80;;;;;;5092094;28;19916;-65
2021/11/23 00:45:33;;;;;;;;;;;23.50;64.80;;;;;;5091923;28;20384;-64
2021/11/23 00:47:59;;;;;;;;;;;23.50;64.70;;;;;;5091386;28;20304;-63
2021/11/23 00:50:24;;;;;;;;;;;23.40;64.70;;;;;;5091764;28;19931;-62
2021/11/23 00:52:49;;;;;;;;;;;23.50;64.80;;;;;;5091901;28;20386;-64
2021/11/23 00:55:15;;;;;;;;;;;23.40;64.60;;;;;;5094485;28;19950;-65
2021/11/23 00:57:40;;;;;;;;;;;23.40;65.20;;;;;;5095775;28;19952;-65
2021/11/23 01:00:07;;;;;;;;;;;23.40;64.60;;;;;;5095936;28;19951;-65
2021/11/23 01:02:33;;;;;;;;;;;23.40;64.60;;;;;;5095119;28;20013;-65
2021/11/23 01:04:59;;;;;;;;;;;23.40;64.60;;;;;;5095715;28;20391;-65
2021/11/23 01:07:24;;;;;;;;;;;23.30;64.60;;;;;;5095650;28;19908;-64
2021/11/23 01:09:50;;;;;;;;;;;23.30;64.50;;;;;;5095451;28;19998;-64
2021/11/23 01:12:15;;;;;;;;;;;23.30;64.50;;;;;;5095457;28;19947;-64
2021/11/23 01:14:41;;;;;;;;;;;23.30;64.60;;;;;;5095600;28;19908;-64
2021/11/23 01:17:06;;;;;;;;;;;23.30;64.50;;;;;;5094845;28;19912;-64
2021/11/23 01:19:31;;;;;;;;;;;23.30;64.50;;;;;;5095371;28;19912;-65
2021/11/23 01:21:57;;;;;;;;;;;23.30;64.50;;;;;;5095391;28;19912;-64
2021/11/23 01:24:22;;;;;;;;;;;23.30;64.50;;;;;;5095288;28;20003;-65
2021/11/23 01:26:48;;;;;;;;;;;23.30;65.20;;;;;;5095258;28;20291;-65
2021/11/23 01:29:13;;;;;;;;;;;23.20;64.40;;;;;;5095197;28;19908;-65
2021/11/23 01:31:40;;;;;;;;;;;23.20;64.40;;;;;;5094614;28;19912;-59
2021/11/23 01:34:05;;;;;;;;;;;23.20;64.40;;;;;;5095170;28;19968;-63
2021/11/23 01:36:31;;;;;;;;;;;23.20;64.40;;;;;;5095088;28;19908;-63
2021/11/23 01:38:56;;;;;;;;;;;23.20;64.40;;;;;;5094983;28;19916;-64
2021/11/23 01:41:23;;;;;;;;;;;23.20;64.30;;;;;;5095165;28;19915;-64
2021/11/23 01:43:49;;;;;;;;;;;23.20;64.40;;;;;;5094872;28;19916;-64
2021/11/23 01:46:14;;;;;;;;;;;23.20;64.30;;;;;;5094355;28;19915;-65
2021/11/23 01:48:40;;;;;;;;;;;23.20;64.30;;;;;;5094747;28;19915;-64
2021/11/23 01:51:06;;;;;;;;;;;23.20;64.30;;;;;;5094844;28;19943;-64
2021/11/23 01:53:32;;;;;;;;;;;23.20;64.30;;;;;;5094773;28;20267;-63
2021/11/23 01:55:57;;;;;;;;;;;23.20;64.20;;;;;;5094710;28;20271;-64
2021/11/23 01:58:23;;;;;;;;;;;23.10;64.20;;;;;;5094705;28;19999;-64
2021/11/23 02:00:48;;;;;;;;;;;23.10;64.20;;;;;;5094043;28;20299;-64
2021/11/23 02:03:14;;;;;;;;;;;23.10;64.10;;;;;;5094476;28;20027;-64
2021/11/23 02:05:40;;;;;;;;;;;23.10;64.10;;;;;;5094107;28;19910;-64
2021/11/23 02:08:06;;;;;;;;;;;23.10;64.00;;;;;;5094940;28;20003;-65
2021/11/23 02:10:32;;;;;;;;;;;23.10;64.00;;;;;;5094404;28;19908;-65
2021/11/23 02:12:58;;;;;;;;;;;23.10;64.00;;;;;;5076196;28;20387;-65
2021/11/23 02:15:24;;;;;;;;;;;23.10;63.90;;;;;;5093869;28;19950;-64
2021/11/23 02:17:50;;;;;;;;;;;23.10;63.90;;;;;;5094336;28;19961;-65
2021/11/23 02:20:17;;;;;;;;;;;23.10;63.90;;;;;;5094246;28;19915;-64
2021/11/23 02:22:42;;;;;;;;;;;23.00;63.80;;;;;;5094077;28;20011;-65
2021/11/23 02:25:09;;;;;;;;;;;23.10;63.80;;;;;;5094136;28;20008;-64
2021/11/23 02:27:35;;;;;;;;;;;23.00;63.80;;;;;;5094280;28;19978;-66
2021/11/23 02:30:00;;;;;;;;;;;23.00;63.80;;;;;;5093594;28;19908;-64
2021/11/23 02:32:26;;;;;;;;;;;23.00;63.70;;;;;;5093813;28;19926;-64
2021/11/23 02:34:51;;;;;;;;;;;23.00;63.70;;;;;;5093925;28;19987;-63
2021/11/23 02:37:17;;;;;;;;;;;23.00;63.70;;;;;;5093886;28;19908;-64
2021/11/23 02:39:42;;;;;;;;;;;23.00;63.70;;;;;;5093937;28;19912;-64
2021/11/23 02:42:08;;;;;;;;;;;22.90;63.60;;;;;;5093708;28;19908;-64
2021/11/23 02:44:42;;;;;;;;;;;22.90;63.60;;;;;;5075229;28;19922;-65
2021/11/23 02:47:08;;;;;;;;;;;22.90;63.60;;;;;;5093773;28;19914;-65
2021/11/23 02:49:33;;;;;;;;;;;22.90;63.60;;;;;;5093730;28;19987;-65
2021/11/23 02:51:59;;;;;;;;;;;22.90;63.60;;;;;;5093518;28;19934;-63
2021/11/23 02:54:25;;;;;;;;;;;22.90;63.60;;;;;;5093690;28;20383;-64
2021/11/23 02:56:50;;;;;;;;;;;22.90;63.60;;;;;;5093553;28;19916;-64
2021/11/23 02:59:15;;;;;;;;;;;22.90;63.60;;;;;;5092942;28;19908;-63
2021/11/23 03:01:41;;;;;;;;;;;22.90;63.60;;;;;;5093445;28;19954;-64
2021/11/23 03:04:07;;;;;;;;;;;22.90;63.60;;;;;;5093332;28;19916;-64
2021/11/23 03:06:32;;;;;;;;;;;22.90;63.60;;;;;;5093299;28;20093;-63
2021/11/23 03:08:57;;;;;;;;;;;22.90;63.60;;;;;;5093375;28;20394;-65
2021/11/23 03:11:23;;;;;;;;;;;22.90;63.60;;;;;;5093222;28;19915;-64
2021/11/23 03:13:49;;;;;;;;;;;22.90;63.60;;;;;;5092743;28;19994;-65
2021/11/23 03:16:15;;;;;;;;;;;22.90;63.60;;;;;;5092704;28;20324;-64
2021/11/23 03:18:40;;;;;;;;;;;22.90;63.60;;;;;;5092771;28;20329;-64
2021/11/23 03:21:06;;;;;;;;;;;22.90;63.60;;;;;;5092964;28;19915;-64
2021/11/23 03:23:31;;;;;;;;;;;22.90;63.50;;;;;;5093054;28;20364;-64
2021/11/23 03:25:57;;;;;;;;;;;22.80;63.50;;;;;;5093049;28;19912;-64
2021/11/23 03:28:22;;;;;;;;;;;22.80;63.50;;;;;;5074304;28;19908;-64
2021/11/23 03:30:48;;;;;;;;;;;22.80;63.50;;;;;;5092908;28;19908;-64
2021/11/23 03:33:13;;;;;;;;;;;22.80;63.50;;;;;;5092746;28;19920;-63
2021/11/23 03:35:40;;;;;;;;;;;22.80;63.50;;;;;;5092738;28;19912;-63
2021/11/23 03:38:06;;;;;;;;;;;22.80;63.50;;;;;;5092987;28;19916;-64
2021/11/23 03:40:32;;;;;;;;;;;22.80;63.50;;;;;;5092768;28;19908;-65
2021/11/23 03:42:58;;;;;;;;;;;22.80;63.50;;;;;;5092059;28;20364;-65
2021/11/23 03:45:24;;;;;;;;;;;22.80;63.50;;;;;;5092642;28;19908;-65
2021/11/23 03:47:50;;;;;;;;;;;22.80;63.40;;;;;;5092425;28;19934;-65
2021/11/23 03:50:16;;;;;;;;;;;22.80;63.40;;;;;;5074453;28;19908;-64
2021/11/23 03:52:43;;;;;;;;;;;22.80;63.40;;;;;;5092481;28;20268;-64
2021/11/23 03:55:13;;;;;;;;;;;22.80;63.40;;;;;;5092001;28;20281;-65
2021/11/23 03:57:39;;;;;;;;;;;22.80;63.40;;;;;;5092451;28;19973;-63
2021/11/23 04:00:05;;;;;;;;;;;22.70;63.30;;;;;;5092380;28;20310;-64
2021/11/23 04:02:31;;;;;;;;;;;22.80;63.30;;;;;;5092245;28;20002;-65
2021/11/23 04:04:56;;;;;;;;;;;22.70;63.20;;;;;;5092176;28;20340;-64
2021/11/23 04:07:22;;;;;;;;;;;22.70;63.20;;;;;;5092250;28;19915;-64
2021/11/23 04:09:48;;;;;;;;;;;22.70;63.20;;;;;;5091765;28;19908;-63
2021/11/23 04:12:13;;;;;;;;;;;22.70;63.20;;;;;;5092163;28;19915;-64
2021/11/23 04:14:39;;;;;;;;;;;22.70;63.20;;;;;;5092166;28;19957;-64
2021/11/23 04:17:06;;;;;;;;;;;22.70;63.20;;;;;;5092096;28;19908;-64
2021/11/23 04:19:32;;;;;;;;;;;22.70;63.20;;;;;;5092040;28;19908;-64
2021/11/23 04:21:58;;;;;;;;;;;22.70;63.20;;;;;;5092147;28;20279;-64
2021/11/23 04:24:24;;;;;;;;;;;22.60;63.10;;;;;;5091789;28;19961;-63
2021/11/23 04:26:49;;;;;;;;;;;22.60;63.10;;;;;;5092118;28;19999;-64
2021/11/23 04:29:14;;;;;;;;;;;22.60;63.00;;;;;;5091862;28;19915;-63
2021/11/23 04:31:40;;;;;;;;;;;22.60;63.00;;;;;;5091787;28;19915;-63
2021/11/23 04:34:05;;;;;;;;;;;22.60;63.00;;;;;;5091995;28;20322;-64
2021/11/23 04:36:31;;;;;;;;;;;22.60;62.90;;;;;;5091930;28;19994;-63
2021/11/23 04:38:56;;;;;;;;;;;22.60;62.90;;;;;;5091547;28;19995;-65
2021/11/23 04:41:22;;;;;;;;;;;22.60;62.80;;;;;;5091863;28;19915;-64
2021/11/23 04:43:47;;;;;;;;;;;22.60;62.80;;;;;;5091844;28;19916;-63
2021/11/23 04:46:13;;;;;;;;;;;22.50;62.80;;;;;;5091825;28;19915;-63
2021/11/23 04:48:38;;;;;;;;;;;22.50;62.70;;;;;;5091721;28;19957;-64
2021/11/23 04:51:04;;;;;;;;;;;22.50;62.70;;;;;;5091842;28;20276;-64
2021/11/23 04:53:29;;;;;;;;;;;22.50;62.70;;;;;;5091309;28;20368;-64
2021/11/23 04:55:55;;;;;;;;;;;22.50;63.30;;;;;;5091823;28;19963;-65
2021/11/23 04:58:20;;;;;;;;;;;22.50;62.70;;;;;;5091758;28;19927;-63
2021/11/23 05:00:45;;;;;;;;;;;22.50;62.70;;;;;;5091689;28;20337;-64
2021/11/23 05:03:11;;;;;;;;;;;22.40;62.60;;;;;;5091507;28;20382;-64
2021/11/23 05:05:37;;;;;;;;;;;22.40;62.60;;;;;;5091653;28;19912;-65
2021/11/23 05:08:02;;;;;;;;;;;22.40;62.60;;;;;;5091330;28;20292;-64
2021/11/23 05:10:28;;;;;;;;;;;22.40;62.50;;;;;;5073488;28;20395;-65
2021/11/23 05:12:53;;;;;;;;;;;22.40;62.50;;;;;;5091547;28;19931;-65
2021/11/23 05:15:19;;;;;;;;;;;22.40;62.50;;;;;;5073376;28;19938;-65
2021/11/23 05:17:44;;;;;;;;;;;22.40;62.60;;;;;;5091561;28;19994;-65
2021/11/23 05:20:11;;;;;;;;;;;22.40;62.50;;;;;;5091606;28;20341;-63
2021/11/23 05:22:37;;;;;;;;;;;22.40;62.50;;;;;;5090856;28;20327;-63
2021/11/23 05:25:03;;;;;;;;;;;22.40;62.50;;;;;;5091581;28;19948;-64
2021/11/23 05:27:30;;;;;;;;;;;22.40;62.40;;;;;;5091488;28;19908;-63
2021/11/23 05:29:55;;;;;;;;;;;22.40;62.40;;;;;;5091471;28;19912;-63
2021/11/23 05:32:21;;;;;;;;;;;22.40;62.50;;;;;;5091214;28;19981;-65
2021/11/23 05:34:46;;;;;;;;;;;22.30;62.40;;;;;;5091363;28;19908;-64
2021/11/23 05:37:12;;;;;;;;;;;22.30;62.40;;;;;;5090889;28;19908;-64
2021/11/23 05:39:37;;;;;;;;;;;22.30;62.40;;;;;;5091525;28;19915;-65
2021/11/23 05:42:03;;;;;;;;;;;22.30;62.30;;;;;;5094924;28;19993;-64
2021/11/23 05:44:28;;;;;;;;;;;22.30;62.30;;;;;;5094893;28;19916;-63
2021/11/23 05:46:54;;;;;;;;;;;22.30;62.30;;;;;;5094856;28;20094;-63
2021/11/23 05:49:19;;;;;;;;;;;22.30;62.30;;;;;;5095167;28;19908;-65
2021/11/23 05:51:46;;;;;;;;;;;22.30;62.30;;;;;;5094325;28;20367;-63
2021/11/23 05:54:11;;;;;;;;;;;22.30;62.30;;;;;;5094745;28;20161;-63
2021/11/23 05:56:37;;;;;;;;;;;22.30;62.20;;;;;;5094777;28;19908;-64
2021/11/23 05:59:02;;;;;;;;;;;22.30;62.20;;;;;;5094733;28;19915;-66
2021/11/23 06:01:28;;;;;;;;;;;22.30;62.20;;;;;;5094568;28;20360;-64
2021/11/23 06:03:53;;;;;;;;;;;22.30;62.20;;;;;;5094508;28;19962;-63
2021/11/23 06:06:18;;;;;;;;;;;22.30;62.20;;;;;;5094058;28;19912;-64
2021/11/23 06:08:44;;;;;;;;;;;22.30;62.20;;;;;;5094557;28;20005;-65
2021/11/23 06:11:09;;;;;;;;;;;22.30;62.20;;;;;;5094452;28;19912;-65
2021/11/23 06:13:35;;;;;;;;;;;22.30;62.10;;;;;;5094385;28;19915;-64
2021/11/23 06:16:01;;;;;;;;;;;22.30;62.10;;;;;;5094311;28;19908;-64
2021/11/23 06:18:26;;;;;;;;;;;22.30;62.10;;;;;;5094296;28;19998;-64
2021/11/23 06:20:53;;;;;;;;;;;22.30;62.10;;;;;;5093837;28;19914;-64
2021/11/23 06:23:20;;;;;;;;;;;22.30;62.00;;;;;;5094423;28;20261;-67
2021/11/23 06:25:46;;;;;;;;;;;22.30;62.10;;;;;;5094182;28;20356;-68
2021/11/23 06:28:12;;;;;;;;;;;22.30;62.00;;;;;;5094152;28;19908;-68
2021/11/23 06:30:38;;;;;;;;;;;22.30;62.00;;;;;;5094095;28;20372;-67
2021/11/23 06:33:04;;;;;;;;;;;22.30;62.00;;;;;;5093942;28;19920;-68
2021/11/23 06:35:30;;;;;;;;;;;22.30;62.00;;;;;;5093440;28;19995;-67
2021/11/23 06:37:55;;;;;;;;;;;22.30;62.00;;;;;;5094078;28;19919;-70
2021/11/23 06:40:21;;;;;;;;;;;22.30;62.00;;;;;;5093948;28;19908;-70
2021/11/23 06:42:46;;;;;;;;;;;22.30;62.00;;;;;;5093788;28;19916;-71
2021/11/23 06:45:13;;;;;;;;;;;22.30;62.00;;;;;;5093788;28;20391;-68
2021/11/23 06:47:39;;;;;;;;;;;22.30;62.60;;;;;;5093741;28;19915;-69
2021/11/23 06:50:05;;;;;;;;;;;22.30;62.00;;;;;;5093168;28;19908;-73
2021/11/23 06:52:31;;;;;;;;;;;22.30;62.00;;;;;;5093789;28;19915;-71
2021/11/23 06:54:57;;;;;;;;;;;22.40;62.10;;;;;;5093735;28;20253;-70
2021/11/23 06:57:22;;;;;;;;;;;22.40;62.10;;;;;;5093501;28;19908;-73
2021/11/23 06:59:47;;;;;;;;;;;22.40;62.10;;;;;;5075483;28;20372;-77
2021/11/23 07:02:13;;;;;;;;;;;22.40;62.10;;;;;;5093515;28;19914;-73
